createdAt,value
2023-03-29T00:02:30.378Z,7.90
2023-03-29T00:05:02.056Z,7.80
2023-03-29T00:07:30.378Z,7.80
2023-03-29T00:09:58.000Z,7.90
2023-03-29T00:12:25.060Z,7.80
2023-03-29T00:14:51.898Z,7.80
2023-03-29T00:17:18.776Z,7.80
2023-03-29T00:19:46.345Z,7.80
2023-03-29T00:22:13.723Z,7.90
2023-03-29T00:24:40.562Z,7.80
2023-03-29T00:27:07.227Z,7.80
2023-03-29T00:29:33.950Z,7.80
2023-03-29T00:32:00.585Z,7.90
2023-03-29T00:34:30.992Z,7.90
2023-03-29T00:36:58.181Z,7.90
2023-03-29T00:39:26.421Z,7.90
2023-03-29T00:41:53.127Z,7.80
2023-03-29T00:44:55.894Z,7.80
2023-03-29T00:47:29.872Z,7.80
2023-03-29T00:50:01.768Z,7.80
2023-03-29T00:52:32.146Z,7.80
2023-03-29T00:55:03.767Z,7.90
2023-03-29T00:57:31.900Z,7.80
2023-03-29T01:00:00.041Z,7.80
2023-03-29T01:02:29.904Z,7.80
2023-03-29T01:05:05.472Z,7.90
2023-03-29T01:07:41.845Z,7.80
2023-03-29T01:10:12.997Z,7.80
2023-03-29T01:12:46.723Z,7.80
2023-03-29T01:15:17.486Z,7.90
2023-03-29T01:17:50.167Z,7.90
2023-03-29T01:20:23.242Z,7.90
2023-03-29T01:23:01.568Z,7.90
2023-03-29T01:25:46.293Z,7.90
2023-03-29T01:28:22.237Z,7.90
2023-03-29T01:30:53.470Z,7.90
2023-03-29T01:33:27.949Z,7.90
2023-03-29T01:36:09.467Z,7.90
2023-03-29T01:38:51.696Z,7.80
2023-03-29T01:41:18.369Z,7.90
2023-03-29T01:44:01.999Z,7.80
2023-03-29T01:46:35.007Z,7.80
2023-03-29T01:49:11.286Z,7.90
2023-03-29T01:51:49.257Z,7.90
2023-03-29T01:54:22.073Z,7.90
2023-03-29T01:56:51.080Z,7.90
2023-03-29T01:59:22.605Z,7.90
2023-03-29T02:01:53.596Z,7.90
2023-03-29T02:04:27.979Z,7.90
2023-03-29T02:06:57.082Z,7.90
2023-03-29T02:09:24.202Z,7.90
2023-03-29T02:11:51.900Z,7.90
2023-03-29T02:14:18.531Z,7.90
2023-03-29T02:16:46.347Z,7.90
2023-03-29T02:19:15.412Z,7.90
2023-03-29T02:21:53.418Z,7.90
2023-03-29T02:24:22.293Z,7.90
2023-03-29T02:26:49.335Z,7.90
2023-03-29T02:29:16.389Z,7.90
2023-03-29T02:31:58.702Z,7.90
2023-03-29T02:34:30.894Z,7.90
2023-03-29T02:37:06.766Z,7.90
2023-03-29T02:39:35.005Z,7.90
2023-03-29T02:42:03.839Z,7.90
2023-03-29T02:44:33.425Z,7.90
2023-03-29T02:47:13.581Z,7.90
2023-03-29T02:49:40.193Z,7.90
2023-03-29T02:52:13.880Z,7.90
2023-03-29T02:54:43.404Z,7.90
2023-03-29T02:57:10.637Z,7.90
2023-03-29T02:59:38.636Z,7.90
2023-03-29T03:02:05.779Z,7.90
2023-03-29T03:04:35.401Z,7.90
2023-03-29T03:07:05.168Z,7.90
2023-03-29T03:09:31.852Z,7.90
2023-03-29T03:11:58.417Z,7.90
2023-03-29T03:14:25.037Z,7.90
2023-03-29T03:16:52.863Z,7.90
2023-03-29T03:19:19.950Z,7.90
2023-03-29T03:21:47.058Z,7.90
2023-03-29T03:24:13.904Z,7.90
2023-03-29T03:26:40.488Z,8.00
2023-03-29T03:29:07.068Z,7.90
2023-03-29T03:31:33.781Z,8.00
2023-03-29T03:34:00.438Z,8.00
2023-03-29T03:36:29.096Z,8.00
2023-03-29T03:38:55.763Z,7.90
2023-03-29T03:41:22.749Z,8.00
2023-03-29T03:43:49.609Z,7.90
2023-03-29T03:46:17.341Z,8.00
2023-03-29T03:48:47.027Z,7.90
2023-03-29T03:51:14.081Z,7.90
2023-03-29T03:53:40.930Z,8.00
2023-03-29T03:56:11.127Z,8.00
2023-03-29T03:58:38.318Z,8.00
2023-03-29T04:01:05.799Z,8.00
2023-03-29T04:03:32.636Z,8.00
2023-03-29T04:06:03.574Z,8.00
2023-03-29T04:08:30.363Z,8.00
2023-03-29T04:11:00.026Z,8.00
2023-03-29T04:13:27.256Z,8.00
2023-03-29T04:15:57.586Z,8.00
2023-03-29T04:18:25.663Z,8.00
2023-03-29T04:20:52.308Z,8.00
2023-03-29T04:23:19.228Z,8.00
2023-03-29T04:25:45.894Z,8.00
2023-03-29T04:28:12.972Z,8.00
2023-03-29T04:30:39.708Z,8.00
2023-03-29T04:33:06.465Z,8.00
2023-03-29T04:35:33.476Z,8.00
2023-03-29T04:38:00.247Z,8.10
2023-03-29T04:40:26.869Z,8.10
2023-03-29T04:42:54.443Z,8.10
2023-03-29T04:45:21.384Z,8.10
2023-03-29T04:47:48.314Z,8.10
2023-03-29T04:50:15.767Z,8.10
2023-03-29T04:52:42.439Z,8.10
2023-03-29T04:55:09.377Z,8.10
2023-03-29T04:57:36.019Z,8.10
2023-03-29T05:00:14.247Z,8.10
2023-03-29T05:02:45.282Z,8.10
2023-03-29T05:05:13.188Z,8.10
2023-03-29T05:07:40.263Z,8.10
2023-03-29T05:10:08.324Z,8.10
2023-03-29T05:12:34.977Z,8.10
2023-03-29T05:15:01.550Z,8.10
2023-03-29T05:17:28.172Z,8.10
2023-03-29T05:19:54.993Z,8.10
2023-03-29T05:22:21.971Z,8.10
2023-03-29T05:24:48.634Z,8.10
2023-03-29T05:27:17.202Z,8.10
2023-03-29T05:29:44.920Z,8.10
2023-03-29T05:32:13.480Z,8.10
2023-03-29T05:34:40.194Z,8.10
2023-03-29T05:37:06.757Z,8.20
2023-03-29T05:39:35.211Z,8.20
2023-03-29T05:42:04.614Z,8.10
2023-03-29T05:44:31.278Z,8.20
2023-03-29T05:46:57.891Z,8.20
2023-03-29T05:49:24.445Z,8.20
2023-03-29T05:51:52.052Z,8.20
2023-03-29T05:54:18.843Z,8.20
2023-03-29T05:56:45.469Z,8.20
2023-03-29T05:59:13.775Z,8.20
2023-03-29T06:01:41.807Z,8.20
2023-03-29T06:04:08.443Z,8.20
2023-03-29T06:06:35.911Z,8.20
2023-03-29T06:09:02.494Z,8.20
2023-03-29T06:11:29.051Z,8.20
2023-03-29T06:13:55.894Z,8.30
2023-03-29T06:16:22.581Z,8.30
2023-03-29T06:18:49.336Z,8.30
2023-03-29T06:21:15.937Z,8.30
2023-03-29T06:23:42.556Z,8.30
2023-03-29T06:26:10.580Z,8.30
2023-03-29T06:28:37.401Z,8.30
2023-03-29T06:31:05.293Z,8.30
2023-03-29T06:33:34.267Z,8.30
2023-03-29T06:36:01.001Z,8.30
2023-03-29T06:38:28.679Z,8.40
2023-03-29T06:41:06.769Z,8.40
2023-03-29T06:43:34.783Z,8.40
2023-03-29T06:46:02.065Z,8.50
2023-03-29T06:48:29.370Z,8.50
2023-03-29T06:50:56.588Z,8.50
2023-03-29T06:53:23.305Z,8.50
2023-03-29T06:55:52.019Z,8.50
2023-03-29T06:58:18.674Z,8.50
2023-03-29T07:00:45.897Z,8.50
2023-03-29T07:03:19.951Z,8.50
2023-03-29T07:05:47.555Z,8.50
2023-03-29T07:08:16.567Z,8.60
2023-03-29T07:10:47.471Z,8.60
2023-03-29T07:13:15.563Z,8.60
2023-03-29T07:15:43.533Z,8.60
2023-03-29T07:18:12.628Z,8.60
2023-03-29T07:20:40.611Z,8.70
2023-03-29T07:23:09.149Z,8.70
2023-03-29T07:25:36.484Z,8.70
2023-03-29T07:28:03.875Z,8.70
2023-03-29T07:30:32.407Z,8.70
2023-03-29T07:32:59.616Z,8.80
2023-03-29T07:35:27.930Z,8.80
2023-03-29T07:37:58.446Z,8.80
2023-03-29T07:40:26.304Z,8.80
2023-03-29T07:42:55.569Z,8.80
2023-03-29T07:45:26.501Z,8.90
2023-03-29T07:47:58.957Z,8.90
2023-03-29T07:50:26.828Z,8.90
2023-03-29T07:52:53.841Z,8.90
2023-03-29T07:55:20.756Z,8.90
2023-03-29T07:57:49.084Z,9.00
2023-03-29T08:00:17.060Z,9.00
2023-03-29T08:02:47.740Z,9.00
2023-03-29T08:05:17.543Z,9.00
2023-03-29T08:07:48.292Z,9.00
2023-03-29T08:10:19.896Z,9.00
2023-03-29T08:12:48.856Z,9.10
2023-03-29T08:15:16.414Z,9.10
2023-03-29T08:17:43.554Z,9.10
2023-03-29T08:20:13.714Z,9.20
2023-03-29T08:22:40.765Z,9.20
2023-03-29T08:25:08.207Z,9.30
2023-03-29T08:27:35.013Z,9.30
2023-03-29T08:30:01.665Z,9.30
2023-03-29T08:32:28.357Z,9.40
2023-03-29T08:34:55.226Z,9.40
2023-03-29T08:37:21.960Z,9.40
2023-03-29T08:39:48.619Z,9.40
2023-03-29T08:42:22.529Z,9.50
2023-03-29T08:45:09.500Z,9.50
2023-03-29T08:47:59.468Z,9.50
2023-03-29T08:50:43.817Z,9.60
2023-03-29T08:53:18.531Z,9.60
2023-03-29T08:55:49.106Z,9.60
2023-03-29T08:58:19.249Z,9.70
2023-03-29T09:00:51.282Z,9.80
2023-03-29T09:03:26.619Z,9.80
2023-03-29T09:06:08.523Z,9.80
2023-03-29T09:08:41.533Z,9.80
2023-03-29T09:11:37.720Z,9.90
2023-03-29T09:14:16.424Z,9.90
2023-03-29T09:16:49.106Z,9.90
2023-03-29T09:19:48.110Z,10.00
2023-03-29T09:22:23.315Z,10.00
2023-03-29T09:24:54.109Z,10.10
2023-03-29T09:27:50.616Z,10.10
2023-03-29T09:30:26.046Z,10.20
2023-03-29T09:32:53.901Z,10.20
2023-03-29T09:35:37.744Z,10.30
2023-03-29T09:38:09.884Z,10.40
2023-03-29T09:40:48.932Z,10.40
2023-03-29T09:43:25.946Z,10.50
2023-03-29T09:45:55.795Z,10.50
2023-03-29T09:48:23.027Z,10.60
2023-03-29T09:50:51.669Z,10.70
2023-03-29T09:53:20.442Z,10.60
2023-03-29T10:07:07.761Z,12.30
2023-03-29T10:09:35.473Z,11.70
2023-03-29T10:12:06.817Z,11.50
2023-03-29T10:14:38.346Z,11.40
2023-03-29T10:17:12.326Z,11.30
2023-03-29T10:19:49.119Z,11.30
2023-03-29T10:22:27.846Z,11.20
2023-03-29T10:24:55.074Z,11.30
2023-03-29T10:27:28.176Z,11.40
2023-03-29T10:29:56.753Z,11.40
2023-03-29T10:32:31.493Z,11.50
2023-03-29T10:35:21.499Z,11.60
2023-03-29T10:37:53.323Z,11.60
2023-03-29T10:40:31.936Z,11.70
2023-03-29T10:43:14.779Z,11.70
2023-03-29T10:45:42.458Z,11.90
2023-03-29T10:48:14.193Z,11.90
2023-03-29T10:50:41.629Z,11.90
2023-03-29T10:53:29.992Z,12.00
2023-03-29T10:56:05.319Z,12.00
2023-03-29T10:58:46.224Z,12.10
2023-03-29T11:01:22.280Z,12.10
2023-03-29T11:04:16.073Z,12.20
2023-03-29T11:07:01.439Z,12.30
2023-03-29T11:09:34.035Z,12.30
2023-03-29T11:12:31.830Z,12.40
2023-03-29T11:15:13.285Z,12.50
2023-03-29T11:17:51.360Z,12.60
2023-03-29T11:21:03.483Z,12.50
2023-03-29T11:23:32.055Z,12.70
2023-03-29T11:26:24.634Z,12.70
2023-03-29T11:28:53.051Z,12.70
2023-03-29T11:31:28.968Z,12.80
2023-03-29T11:34:21.257Z,12.90
2023-03-29T11:37:03.633Z,12.80
2023-03-29T11:40:00.366Z,12.90
2023-03-29T11:42:32.223Z,13.00
2023-03-29T11:45:02.067Z,13.10
2023-03-29T11:47:33.428Z,13.10
2023-03-29T11:50:10.391Z,13.10
2023-03-29T11:52:43.728Z,13.10
2023-03-29T11:55:23.811Z,13.20
2023-03-29T11:58:00.003Z,13.20
2023-03-29T12:00:36.409Z,13.30
2023-03-29T12:03:41.422Z,13.30
2023-03-29T12:06:19.963Z,13.40
2023-03-29T12:08:55.647Z,13.50
2023-03-29T12:11:23.622Z,13.60
2023-03-29T12:13:55.326Z,13.60
2023-03-29T12:16:32.724Z,13.80
2023-03-29T12:19:05.269Z,13.70
2023-03-29T12:21:34.286Z,13.80
2023-03-29T12:24:01.215Z,13.90
2023-03-29T12:26:58.398Z,13.80
2023-03-29T12:29:40.113Z,13.90
2023-03-29T12:32:36.417Z,13.90
2023-03-29T12:35:27.798Z,14.00
2023-03-29T12:38:02.060Z,14.00
2023-03-29T12:40:39.542Z,14.00
2023-03-29T12:43:09.306Z,14.10
2023-03-29T12:45:48.398Z,14.00
2023-03-29T12:48:19.334Z,14.00
2023-03-29T12:50:49.425Z,14.00
2023-03-29T12:53:24.252Z,14.10
2023-03-29T12:56:11.823Z,14.10
2023-03-29T12:59:06.620Z,14.20
2023-03-29T13:01:35.847Z,14.10
2023-03-29T13:04:20.420Z,14.10
2023-03-29T13:06:47.143Z,14.20
2023-03-29T13:09:32.454Z,14.30
2023-03-29T13:12:11.106Z,14.30
2023-03-29T13:14:43.154Z,14.40
2023-03-29T13:17:26.971Z,14.30
2023-03-29T13:20:05.820Z,14.30
2023-03-29T13:22:50.860Z,14.40
2023-03-29T13:25:20.646Z,14.40
2023-03-29T13:27:59.694Z,14.40
2023-03-29T13:30:45.365Z,14.40
2023-03-29T13:33:49.106Z,14.40
2023-03-29T13:36:34.409Z,14.50
2023-03-29T13:39:05.399Z,14.40
2023-03-29T13:41:38.275Z,14.40
2023-03-29T13:44:17.849Z,14.40
2023-03-29T13:46:48.459Z,14.40
2023-03-29T13:49:25.361Z,14.50
2023-03-29T13:52:16.255Z,14.50
2023-03-29T13:54:50.696Z,14.50
2023-03-29T13:57:19.657Z,14.50
2023-03-29T13:59:53.862Z,14.50
2023-03-29T14:02:32.969Z,14.60
2023-03-29T14:05:03.567Z,14.50
2023-03-29T14:07:34.005Z,14.50
2023-03-29T14:10:01.681Z,14.50
2023-03-29T14:12:35.076Z,14.60
2023-03-29T14:15:05.120Z,14.60
2023-03-29T14:17:32.859Z,14.60
2023-03-29T14:20:00.969Z,14.60
2023-03-29T14:22:33.872Z,14.60
2023-03-29T14:25:13.350Z,14.60
2023-03-29T14:27:41.244Z,14.70
2023-03-29T14:30:21.959Z,14.60
2023-03-29T14:32:50.863Z,14.60
2023-03-29T14:35:18.442Z,14.60
2023-03-29T14:37:46.924Z,14.70
2023-03-29T14:40:19.834Z,14.70
2023-03-29T14:42:48.610Z,14.80
2023-03-29T14:45:17.939Z,14.70
2023-03-29T14:47:46.099Z,14.70
2023-03-29T14:50:18.926Z,14.70
2023-03-29T14:52:47.955Z,14.60
2023-03-29T14:55:18.353Z,14.70
2023-03-29T14:57:47.543Z,14.70
2023-03-29T15:00:20.053Z,14.70
2023-03-29T15:02:59.173Z,14.80
2023-03-29T15:05:33.728Z,14.80
2023-03-29T15:08:01.851Z,14.90
2023-03-29T15:10:33.341Z,14.90
2023-03-29T15:13:03.529Z,14.90
2023-03-29T15:15:33.129Z,14.90
2023-03-29T15:18:00.874Z,14.90
2023-03-29T15:20:30.040Z,14.90
2023-03-29T15:23:08.544Z,14.80
2023-03-29T15:25:37.179Z,14.80
2023-03-29T15:28:04.100Z,14.90
2023-03-29T15:30:38.396Z,14.90
2023-03-29T15:33:29.301Z,14.90
2023-03-29T15:35:57.218Z,14.80
2023-03-29T15:38:30.314Z,14.80
2023-03-29T15:41:08.465Z,14.90
2023-03-29T15:43:36.229Z,14.80
2023-03-29T15:46:03.155Z,14.80
2023-03-29T15:48:30.076Z,14.90
2023-03-29T15:50:58.788Z,14.90
2023-03-29T15:53:27.702Z,14.90
2023-03-29T15:55:55.761Z,14.90
2023-03-29T15:58:29.425Z,14.90
2023-03-29T16:01:37.561Z,14.90
2023-03-29T16:04:06.222Z,14.90
2023-03-29T16:06:33.882Z,14.90
2023-03-29T16:09:01.199Z,14.90
2023-03-29T16:11:28.505Z,14.90
2023-03-29T16:13:56.452Z,14.90
2023-03-29T16:16:23.805Z,14.90
2023-03-29T16:18:50.873Z,14.90
2023-03-29T16:21:19.537Z,14.90
2023-03-29T16:23:47.182Z,14.90
2023-03-29T16:26:16.738Z,14.90
2023-03-29T16:28:44.006Z,14.90
2023-03-29T16:31:12.982Z,14.90
2023-03-29T16:33:41.159Z,14.90
2023-03-29T16:36:08.682Z,14.90
2023-03-29T16:38:35.649Z,14.90
2023-03-29T16:41:02.728Z,15.00
2023-03-29T16:43:29.465Z,14.90
2023-03-29T16:45:56.902Z,14.90
2023-03-29T16:48:23.868Z,14.90
2023-03-29T16:50:50.724Z,14.90
2023-03-29T16:53:18.628Z,14.80
2023-03-29T16:55:46.525Z,14.80
2023-03-29T16:58:13.399Z,14.80
2023-03-29T17:00:40.948Z,14.90
2023-03-29T17:03:08.059Z,14.80
2023-03-29T17:05:40.042Z,14.80
2023-03-29T17:08:08.983Z,14.90
2023-03-29T17:10:36.123Z,14.80
2023-03-29T17:13:02.987Z,14.80
2023-03-29T17:15:29.687Z,14.90
2023-03-29T17:17:56.581Z,14.80
2023-03-29T17:20:23.418Z,14.70
2023-03-29T17:22:52.374Z,14.70
2023-03-29T17:25:19.271Z,14.80
2023-03-29T17:27:46.910Z,14.80
2023-03-29T17:30:14.297Z,14.80
2023-03-29T17:32:44.247Z,14.70
2023-03-29T17:35:11.605Z,14.80
2023-03-29T17:37:38.517Z,14.80
2023-03-29T17:40:13.861Z,14.80
2023-03-29T17:42:46.467Z,14.90
2023-03-29T17:45:13.333Z,14.90
2023-03-29T17:47:40.524Z,14.90
2023-03-29T17:50:09.497Z,14.80
2023-03-29T17:52:36.219Z,14.80
2023-03-29T17:55:03.140Z,14.70
2023-03-29T17:57:29.789Z,14.70
2023-03-29T17:59:56.433Z,14.70
2023-03-29T18:02:24.658Z,14.70
2023-03-29T18:04:51.820Z,14.70
2023-03-29T18:07:19.315Z,14.60
2023-03-29T18:09:46.199Z,14.60
2023-03-29T18:12:12.887Z,14.50
2023-03-29T18:14:39.528Z,14.60
2023-03-29T18:17:06.544Z,14.50
2023-03-29T18:19:33.409Z,14.50
2023-03-29T18:22:00.844Z,14.50
2023-03-29T18:24:27.665Z,14.50
2023-03-29T18:26:54.486Z,14.40
2023-03-29T18:29:21.128Z,14.40
2023-03-29T18:31:47.759Z,14.40
2023-03-29T18:34:14.677Z,14.40
2023-03-29T18:36:41.357Z,14.40
2023-03-29T18:39:08.004Z,14.30
2023-03-29T18:41:37.222Z,14.30
2023-03-29T18:44:04.731Z,14.30
2023-03-29T18:46:31.969Z,14.30
2023-03-29T18:49:01.727Z,14.30
2023-03-29T18:51:28.550Z,14.30
2023-03-29T18:53:56.305Z,14.20
2023-03-29T18:56:23.401Z,14.20
2023-03-29T18:58:50.026Z,14.20
2023-03-29T19:01:16.743Z,14.20
2023-03-29T19:03:43.557Z,14.20
2023-03-29T19:06:11.871Z,14.10
2023-03-29T19:08:40.557Z,14.20
2023-03-29T19:11:09.688Z,14.10
2023-03-29T19:13:36.746Z,14.10
2023-03-29T19:16:04.240Z,14.10
2023-03-29T19:18:31.320Z,14.10
2023-03-29T19:20:57.982Z,14.00
2023-03-29T19:23:27.208Z,14.00
2023-03-29T19:25:56.312Z,14.00
2023-03-29T19:28:23.737Z,14.00
2023-03-29T19:30:52.686Z,14.00
2023-03-29T19:33:20.018Z,13.90
2023-03-29T19:35:47.251Z,14.00
2023-03-29T19:38:14.021Z,13.90
2023-03-29T19:40:45.750Z,13.90
2023-03-29T19:43:16.827Z,13.90
2023-03-29T19:45:48.684Z,13.90
2023-03-29T19:48:22.373Z,13.90
2023-03-29T19:50:50.277Z,13.80
2023-03-29T19:53:17.059Z,13.80
2023-03-29T19:55:45.387Z,13.80
2023-03-29T19:58:12.928Z,13.80
2023-03-29T20:00:41.687Z,13.80
2023-03-29T20:03:12.545Z,13.80
2023-03-29T20:05:40.257Z,13.80
2023-03-29T20:08:07.482Z,13.80
2023-03-29T20:10:35.259Z,13.70
2023-03-29T20:13:02.938Z,13.70
2023-03-29T20:15:29.687Z,13.70
2023-03-29T20:17:59.448Z,13.70
2023-03-29T20:20:27.598Z,13.70
2023-03-29T20:22:58.354Z,13.70
2023-03-29T20:25:25.880Z,13.60
2023-03-29T20:27:53.345Z,13.60
2023-03-29T20:30:20.573Z,13.60
2023-03-29T20:32:47.475Z,13.60
2023-03-29T20:35:14.377Z,13.60
2023-03-29T20:37:41.142Z,13.60
2023-03-29T20:40:08.945Z,13.60
2023-03-29T20:42:36.950Z,13.60
2023-03-29T20:45:04.588Z,13.50
2023-03-29T20:47:31.594Z,13.50
2023-03-29T20:49:58.836Z,13.50
2023-03-29T20:52:25.440Z,13.50
2023-03-29T20:54:52.165Z,13.50
2023-03-29T20:57:21.027Z,13.50
2023-03-29T20:59:49.397Z,13.50
2023-03-29T21:02:21.507Z,13.40
2023-03-29T21:04:54.552Z,13.40
2023-03-29T21:07:21.750Z,13.40
2023-03-29T21:09:50.069Z,13.40
2023-03-29T21:12:17.690Z,13.40
2023-03-29T21:14:44.936Z,13.40
2023-03-29T21:17:11.672Z,13.40
2023-03-29T21:19:39.584Z,13.40
2023-03-29T21:22:06.334Z,13.40
2023-03-29T21:24:33.923Z,13.30
2023-03-29T21:27:00.670Z,13.30
2023-03-29T21:29:27.848Z,13.30
2023-03-29T21:31:54.909Z,13.30
2023-03-29T21:34:22.026Z,13.30
2023-03-29T21:36:48.682Z,13.30
2023-03-29T21:39:15.559Z,13.20
2023-03-29T21:41:42.552Z,13.20
2023-03-29T21:44:09.168Z,13.20
2023-03-29T21:46:35.978Z,13.20
2023-03-29T21:49:02.879Z,13.20
2023-03-29T21:51:29.477Z,13.30
2023-03-29T21:53:56.184Z,13.20
2023-03-29T21:56:23.208Z,13.20
2023-03-29T21:58:49.949Z,13.20
2023-03-29T22:01:17.085Z,13.20
2023-03-29T22:03:44.382Z,13.20
2023-03-29T22:06:13.603Z,13.20
2023-03-29T22:08:40.529Z,13.20
2023-03-29T22:11:14.023Z,13.20
2023-03-29T22:13:41.509Z,13.20
2023-03-29T22:16:09.712Z,13.20
2023-03-29T22:18:44.057Z,13.20
2023-03-29T22:21:11.194Z,13.10
2023-03-29T22:23:37.908Z,13.10
2023-03-29T22:26:07.569Z,13.10
2023-03-29T22:28:39.132Z,13.10
2023-03-29T22:31:08.127Z,13.10
2023-03-29T22:33:37.137Z,13.10
2023-03-29T22:36:12.839Z,13.10
2023-03-29T22:38:39.593Z,13.10
2023-03-29T22:41:06.604Z,13.10
2023-03-29T22:43:33.324Z,13.10
2023-03-29T22:46:00.060Z,13.10
2023-03-29T22:48:26.782Z,13.10
2023-03-29T22:50:53.391Z,13.10
2023-03-29T22:53:19.980Z,13.00
2023-03-29T22:55:46.652Z,13.00
2023-03-29T22:58:13.278Z,13.00
2023-03-29T23:00:40.067Z,13.00
2023-03-29T23:03:06.886Z,13.00
2023-03-29T23:05:33.771Z,13.00
2023-03-29T23:08:00.792Z,13.00
2023-03-29T23:10:29.272Z,13.00
2023-03-29T23:13:09.878Z,13.00
2023-03-29T23:15:38.045Z,13.00
2023-03-29T23:18:05.751Z,13.00
2023-03-29T23:20:32.965Z,13.00
2023-03-29T23:23:00.262Z,13.00
2023-03-29T23:25:27.649Z,13.00
2023-03-29T23:27:54.641Z,13.00
2023-03-29T23:30:21.719Z,12.90
2023-03-29T23:32:49.725Z,12.90
2023-03-29T23:35:16.828Z,12.90
2023-03-29T23:37:43.747Z,12.90
2023-03-29T23:40:17.005Z,12.90
2023-03-29T23:42:45.861Z,12.90
2023-03-29T23:45:15.702Z,12.90
2023-03-29T23:47:44.156Z,12.90
2023-03-29T23:50:13.476Z,12.90
2023-03-29T23:52:41.203Z,12.80
2023-03-29T23:55:12.254Z,12.80
2023-03-29T23:57:38.907Z,12.80
